Terminal Aerodrome Forecast
Issued by NWS Charleston, WV

Current Version | Previous Version | Graphics & Text | Print | Product List | Glossary On
Versions: 1 2 3 4 5 6 7 8 9 10 11 12 13 14 15 16 17 18 19 20 21 22 23 24 25 26 27 28 29 30 31
000
FTUS41 KRLX 200800 AAA
TAFEKN
TAF AMD
KEKN 200838Z 2009/2106 00000KT 6SM BR SCT001 BKN050
     FM201200 00000KT 6SM BR OVC025
     FM201300 VRB03KT 6SM BR BKN015
     FM201500 17004KT P6SM BKN025
     FM201600 18004KT P6SM BKN035
     FM210100 00000KT P6SM BKN040=

USA.gov is the U.S. government's official web portal to all federal, state and local government web resources and services.